sensor_id;sensor_type;location;lat;lon;timestamp;P1;durP1;ratioP1;P2;durP2;ratioP2
20705;SDS011;10514;49.468;11.044;2023-06-01T00:00:25;3.60;;;1.70;;
20705;SDS011;10514;49.468;11.044;2023-06-01T00:02:51;3.70;;;2.10;;
20705;SDS011;10514;49.468;11.044;2023-06-01T00:05:17;6.55;;;1.98;;
20705;SDS011;10514;49.468;11.044;2023-06-01T00:07:43;7.25;;;1.80;;
20705;SDS011;10514;49.468;11.044;2023-06-01T00:10:09;4.20;;;2.03;;
20705;SDS011;10514;49.468;11.044;2023-06-01T00:12:35;5.68;;;2.20;;
20705;SDS011;10514;49.468;11.044;2023-06-01T00:15:01;4.43;;;1.83;;
20705;SDS011;10514;49.468;11.044;2023-06-01T00:17:28;3.03;;;1.83;;
20705;SDS011;10514;49.468;11.044;2023-06-01T00:19:55;5.50;;;1.70;;
20705;SDS011;10514;49.468;11.044;2023-06-01T00:22:21;3.15;;;1.73;;
20705;SDS011;10514;49.468;11.044;2023-06-01T00:24:49;3.65;;;1.65;;
20705;SDS011;10514;49.468;11.044;2023-06-01T00:27:15;4.25;;;1.80;;
20705;SDS011;10514;49.468;11.044;2023-06-01T00:29:41;4.05;;;1.85;;
20705;SDS011;10514;49.468;11.044;2023-06-01T00:32:07;5.95;;;1.70;;
20705;SDS011;10514;49.468;11.044;2023-06-01T00:34:32;8.40;;;2.00;;
20705;SDS011;10514;49.468;11.044;2023-06-01T00:41:52;3.55;;;1.52;;
20705;SDS011;10514;49.468;11.044;2023-06-01T00:44:18;5.90;;;1.83;;
20705;SDS011;10514;49.468;11.044;2023-06-01T00:46:44;6.72;;;2.33;;
20705;SDS011;10514;49.468;11.044;2023-06-01T00:49:10;4.25;;;1.92;;
20705;SDS011;10514;49.468;11.044;2023-06-01T00:51:36;7.00;;;2.10;;
20705;SDS011;10514;49.468;11.044;2023-06-01T00:54:03;7.30;;;1.95;;
20705;SDS011;10514;49.468;11.044;2023-06-01T00:56:29;9.55;;;1.85;;
20705;SDS011;10514;49.468;11.044;2023-06-01T00:58:56;6.68;;;2.03;;
20705;SDS011;10514;49.468;11.044;2023-06-01T01:01:22;4.57;;;1.90;;
20705;SDS011;10514;49.468;11.044;2023-06-01T01:03:49;4.75;;;2.17;;
20705;SDS011;10514;49.468;11.044;2023-06-01T01:06:27;7.93;;;1.95;;
20705;SDS011;10514;49.468;11.044;2023-06-01T01:11:32;6.90;;;1.65;;
20705;SDS011;10514;49.468;11.044;2023-06-01T01:14:00;4.97;;;1.73;;
20705;SDS011;10514;49.468;11.044;2023-06-01T01:16:32;3.80;;;1.75;;
20705;SDS011;10514;49.468;11.044;2023-06-01T01:19:03;9.15;;;2.42;;
20705;SDS011;10514;49.468;11.044;2023-06-01T01:21:35;6.10;;;2.25;;
20705;SDS011;10514;49.468;11.044;2023-06-01T01:24:07;4.85;;;2.20;;
20705;SDS011;10514;49.468;11.044;2023-06-01T01:26:54;3.83;;;2.13;;
20705;SDS011;10514;49.468;11.044;2023-06-01T01:29:23;4.50;;;2.17;;
20705;SDS011;10514;49.468;11.044;2023-06-01T01:31:51;7.03;;;2.50;;
20705;SDS011;10514;49.468;11.044;2023-06-01T01:34:17;3.80;;;1.63;;
20705;SDS011;10514;49.468;11.044;2023-06-01T01:36:43;2.70;;;1.77;;
20705;SDS011;10514;49.468;11.044;2023-06-01T01:39:09;6.63;;;2.10;;
20705;SDS011;10514;49.468;11.044;2023-06-01T01:41:35;3.85;;;2.10;;
20705;SDS011;10514;49.468;11.044;2023-06-01T01:44:00;3.88;;;1.85;;
20705;SDS011;10514;49.468;11.044;2023-06-01T01:46:28;4.38;;;2.00;;
20705;SDS011;10514;49.468;11.044;2023-06-01T01:51:27;6.32;;;2.10;;
20705;SDS011;10514;49.468;11.044;2023-06-01T01:53:55;3.92;;;2.17;;
20705;SDS011;10514;49.468;11.044;2023-06-01T01:56:22;5.03;;;2.13;;
20705;SDS011;10514;49.468;11.044;2023-06-01T01:58:48;3.50;;;2.38;;
20705;SDS011;10514;49.468;11.044;2023-06-01T02:01:15;3.53;;;2.13;;
20705;SDS011;10514;49.468;11.044;2023-06-01T02:03:41;4.38;;;1.60;;
20705;SDS011;10514;49.468;11.044;2023-06-01T02:06:07;5.03;;;2.40;;
20705;SDS011;10514;49.468;11.044;2023-06-01T02:08:33;9.93;;;2.70;;
20705;SDS011;10514;49.468;11.044;2023-06-01T02:10:59;4.72;;;1.83;;
20705;SDS011;10514;49.468;11.044;2023-06-01T02:13:25;11.20;;;2.60;;
20705;SDS011;10514;49.468;11.044;2023-06-01T02:15:51;8.50;;;2.58;;
20705;SDS011;10514;49.468;11.044;2023-06-01T02:18:17;6.55;;;2.10;;
20705;SDS011;10514;49.468;11.044;2023-06-01T02:20:44;5.05;;;2.30;;
20705;SDS011;10514;49.468;11.044;2023-06-01T02:23:10;4.93;;;1.88;;
20705;SDS011;10514;49.468;11.044;2023-06-01T02:25:36;10.93;;;2.55;;
20705;SDS011;10514;49.468;11.044;2023-06-01T02:28:02;4.60;;;1.95;;
20705;SDS011;10514;49.468;11.044;2023-06-01T02:30:28;5.90;;;2.10;;
20705;SDS011;10514;49.468;11.044;2023-06-01T02:32:54;5.55;;;2.50;;
20705;SDS011;10514;49.468;11.044;2023-06-01T02:35:20;6.68;;;2.20;;
20705;SDS011;10514;49.468;11.044;2023-06-01T02:37:45;5.57;;;1.65;;
20705;SDS011;10514;49.468;11.044;2023-06-01T02:40:11;5.13;;;1.95;;
20705;SDS011;10514;49.468;11.044;2023-06-01T02:42:38;6.85;;;2.42;;
20705;SDS011;10514;49.468;11.044;2023-06-01T02:45:05;2.50;;;1.77;;
20705;SDS011;10514;49.468;11.044;2023-06-01T02:47:31;10.98;;;2.05;;
20705;SDS011;10514;49.468;11.044;2023-06-01T02:49:57;9.93;;;2.25;;
20705;SDS011;10514;49.468;11.044;2023-06-01T02:52:22;4.20;;;2.20;;
20705;SDS011;10514;49.468;11.044;2023-06-01T02:54:48;7.13;;;2.58;;
20705;SDS011;10514;49.468;11.044;2023-06-01T02:57:14;3.38;;;2.10;;
20705;SDS011;10514;49.468;11.044;2023-06-01T02:59:40;3.65;;;2.00;;
20705;SDS011;10514;49.468;11.044;2023-06-01T03:02:06;6.15;;;2.30;;
20705;SDS011;10514;49.468;11.044;2023-06-01T03:04:32;5.43;;;1.95;;
20705;SDS011;10514;49.468;11.044;2023-06-01T03:06:58;4.97;;;2.00;;
20705;SDS011;10514;49.468;11.044;2023-06-01T03:09:26;5.63;;;2.20;;
20705;SDS011;10514;49.468;11.044;2023-06-01T03:11:52;3.63;;;1.90;;
20705;SDS011;10514;49.468;11.044;2023-06-01T03:14:17;6.03;;;1.98;;
20705;SDS011;10514;49.468;11.044;2023-06-01T03:16:43;5.47;;;2.13;;
20705;SDS011;10514;49.468;11.044;2023-06-01T03:19:09;4.75;;;2.42;;
20705;SDS011;10514;49.468;11.044;2023-06-01T03:21:35;3.83;;;2.00;;
20705;SDS011;10514;49.468;11.044;2023-06-01T03:24:02;5.28;;;2.10;;
20705;SDS011;10514;49.468;11.044;2023-06-01T03:26:27;4.70;;;1.85;;
20705;SDS011;10514;49.468;11.044;2023-06-01T03:28:53;4.25;;;2.17;;
20705;SDS011;10514;49.468;11.044;2023-06-01T03:31:20;4.28;;;2.20;;
20705;SDS011;10514;49.468;11.044;2023-06-01T03:33:46;5.38;;;2.42;;
20705;SDS011;10514;49.468;11.044;2023-06-01T03:36:12;6.38;;;2.58;;
20705;SDS011;10514;49.468;11.044;2023-06-01T03:38:39;4.28;;;2.22;;
20705;SDS011;10514;49.468;11.044;2023-06-01T03:41:06;6.22;;;2.20;;
20705;SDS011;10514;49.468;11.044;2023-06-01T03:43:32;4.72;;;2.25;;
20705;SDS011;10514;49.468;11.044;2023-06-01T03:45:58;4.90;;;2.42;;
20705;SDS011;10514;49.468;11.044;2023-06-01T03:48:25;4.10;;;2.28;;
20705;SDS011;10514;49.468;11.044;2023-06-01T03:50:50;4.60;;;2.53;;
20705;SDS011;10514;49.468;11.044;2023-06-01T03:53:17;5.05;;;1.98;;
20705;SDS011;10514;49.468;11.044;2023-06-01T03:55:43;5.55;;;2.63;;
20705;SDS011;10514;49.468;11.044;2023-06-01T03:58:08;4.55;;;2.15;;
20705;SDS011;10514;49.468;11.044;2023-06-01T04:00:34;6.00;;;2.28;;
20705;SDS011;10514;49.468;11.044;2023-06-01T04:03:01;6.03;;;2.13;;
20705;SDS011;10514;49.468;11.044;2023-06-01T04:05:29;5.18;;;1.98;;
20705;SDS011;10514;49.468;11.044;2023-06-01T04:07:55;5.60;;;2.22;;
20705;SDS011;10514;49.468;11.044;2023-06-01T04:10:21;4.68;;;2.53;;
20705;SDS011;10514;49.468;11.044;2023-06-01T04:12:48;5.05;;;2.70;;
20705;SDS011;10514;49.468;11.044;2023-06-01T04:15:14;10.02;;;2.95;;
20705;SDS011;10514;49.468;11.044;2023-06-01T04:17:41;4.95;;;2.92;;
20705;SDS011;10514;49.468;11.044;2023-06-01T04:20:11;7.05;;;2.70;;
20705;SDS011;10514;49.468;11.044;2023-06-01T04:22:38;6.55;;;2.88;;
20705;SDS011;10514;49.468;11.044;2023-06-01T04:25:05;7.68;;;2.72;;
20705;SDS011;10514;49.468;11.044;2023-06-01T04:27:36;6.78;;;2.70;;
20705;SDS011;10514;49.468;11.044;2023-06-01T04:30:03;3.72;;;2.50;;
20705;SDS011;10514;49.468;11.044;2023-06-01T04:32:30;6.65;;;3.00;;
20705;SDS011;10514;49.468;11.044;2023-06-01T04:34:57;6.28;;;2.72;;
20705;SDS011;10514;49.468;11.044;2023-06-01T04:37:24;6.95;;;2.88;;
20705;SDS011;10514;49.468;11.044;2023-06-01T04:39:51;5.78;;;2.60;;
20705;SDS011;10514;49.468;11.044;2023-06-01T04:42:17;5.68;;;3.40;;
20705;SDS011;10514;49.468;11.044;2023-06-01T04:44:44;7.03;;;2.85;;
20705;SDS011;10514;49.468;11.044;2023-06-01T04:47:11;15.77;;;2.90;;
20705;SDS011;10514;49.468;11.044;2023-06-01T04:49:39;13.60;;;3.78;;
20705;SDS011;10514;49.468;11.044;2023-06-01T04:52:06;6.97;;;3.55;;
20705;SDS011;10514;49.468;11.044;2023-06-01T04:54:32;12.30;;;3.63;;
20705;SDS011;10514;49.468;11.044;2023-06-01T04:56:58;7.55;;;3.05;;
20705;SDS011;10514;49.468;11.044;2023-06-01T04:59:24;9.48;;;3.35;;
20705;SDS011;10514;49.468;11.044;2023-06-01T05:01:50;8.07;;;3.05;;
20705;SDS011;10514;49.468;11.044;2023-06-01T05:04:16;8.68;;;2.83;;
20705;SDS011;10514;49.468;11.044;2023-06-01T05:06:42;10.55;;;2.88;;
20705;SDS011;10514;49.468;11.044;2023-06-01T05:09:08;14.07;;;3.30;;
20705;SDS011;10514;49.468;11.044;2023-06-01T05:11:34;6.40;;;2.90;;
20705;SDS011;10514;49.468;11.044;2023-06-01T05:13:59;8.18;;;2.80;;
20705;SDS011;10514;49.468;11.044;2023-06-01T05:16:27;9.05;;;3.05;;
20705;SDS011;10514;49.468;11.044;2023-06-01T05:18:54;5.32;;;2.72;;
20705;SDS011;10514;49.468;11.044;2023-06-01T05:21:20;8.82;;;2.40;;
20705;SDS011;10514;49.468;11.044;2023-06-01T05:23:46;8.52;;;2.67;;
20705;SDS011;10514;49.468;11.044;2023-06-01T05:26:13;8.88;;;3.28;;
20705;SDS011;10514;49.468;11.044;2023-06-01T05:28:39;8.52;;;3.03;;
20705;SDS011;10514;49.468;11.044;2023-06-01T05:31:05;11.32;;;2.70;;
20705;SDS011;10514;49.468;11.044;2023-06-01T05:33:31;9.65;;;2.80;;
20705;SDS011;10514;49.468;11.044;2023-06-01T05:35:57;6.78;;;2.85;;
20705;SDS011;10514;49.468;11.044;2023-06-01T05:38:23;10.10;;;2.88;;
20705;SDS011;10514;49.468;11.044;2023-06-01T05:40:49;11.25;;;2.70;;
20705;SDS011;10514;49.468;11.044;2023-06-01T05:43:15;13.48;;;3.53;;
20705;SDS011;10514;49.468;11.044;2023-06-01T05:45:41;11.32;;;2.95;;
20705;SDS011;10514;49.468;11.044;2023-06-01T05:48:07;5.43;;;2.60;;
20705;SDS011;10514;49.468;11.044;2023-06-01T05:50:33;10.23;;;3.00;;
20705;SDS011;10514;49.468;11.044;2023-06-01T05:52:58;10.77;;;2.72;;
20705;SDS011;10514;49.468;11.044;2023-06-01T05:55:24;4.78;;;2.35;;
20705;SDS011;10514;49.468;11.044;2023-06-01T05:57:50;12.27;;;3.05;;
20705;SDS011;10514;49.468;11.044;2023-06-01T06:00:16;6.60;;;2.88;;
20705;SDS011;10514;49.468;11.044;2023-06-01T06:02:43;5.57;;;2.25;;
20705;SDS011;10514;49.468;11.044;2023-06-01T06:05:09;6.25;;;2.20;;
20705;SDS011;10514;49.468;11.044;2023-06-01T06:07:35;7.63;;;2.35;;
20705;SDS011;10514;49.468;11.044;2023-06-01T06:10:02;11.60;;;2.83;;
20705;SDS011;10514;49.468;11.044;2023-06-01T06:12:28;9.02;;;3.10;;
20705;SDS011;10514;49.468;11.044;2023-06-01T06:14:54;8.27;;;3.08;;
20705;SDS011;10514;49.468;11.044;2023-06-01T06:17:20;8.00;;;3.17;;
20705;SDS011;10514;49.468;11.044;2023-06-01T06:19:46;8.00;;;2.92;;
20705;SDS011;10514;49.468;11.044;2023-06-01T06:22:13;10.13;;;3.30;;
20705;SDS011;10514;49.468;11.044;2023-06-01T06:24:39;7.15;;;3.42;;
20705;SDS011;10514;49.468;11.044;2023-06-01T06:27:06;7.07;;;2.63;;
20705;SDS011;10514;49.468;11.044;2023-06-01T06:29:33;10.40;;;2.63;;
20705;SDS011;10514;49.468;11.044;2023-06-01T06:31:59;4.15;;;2.55;;
20705;SDS011;10514;49.468;11.044;2023-06-01T06:34:25;7.38;;;3.10;;
20705;SDS011;10514;49.468;11.044;2023-06-01T06:36:51;14.00;;;3.15;;
20705;SDS011;10514;49.468;11.044;2023-06-01T06:39:18;5.90;;;2.38;;
20705;SDS011;10514;49.468;11.044;2023-06-01T06:41:44;11.02;;;2.80;;
20705;SDS011;10514;49.468;11.044;2023-06-01T06:44:10;5.13;;;2.47;;
20705;SDS011;10514;49.468;11.044;2023-06-01T06:46:36;5.57;;;2.00;;
20705;SDS011;10514;49.468;11.044;2023-06-01T06:49:01;6.03;;;2.90;;
20705;SDS011;10514;49.468;11.044;2023-06-01T06:51:27;7.85;;;2.40;;
20705;SDS011;10514;49.468;11.044;2023-06-01T06:53:53;8.10;;;2.67;;
20705;SDS011;10514;49.468;11.044;2023-06-01T06:56:19;7.18;;;2.53;;
20705;SDS011;10514;49.468;11.044;2023-06-01T06:58:46;6.78;;;2.17;;
20705;SDS011;10514;49.468;11.044;2023-06-01T07:01:11;13.70;;;2.53;;
20705;SDS011;10514;49.468;11.044;2023-06-01T07:03:37;7.70;;;2.58;;
20705;SDS011;10514;49.468;11.044;2023-06-01T07:06:03;5.35;;;2.10;;
20705;SDS011;10514;49.468;11.044;2023-06-01T07:08:29;15.48;;;2.60;;
20705;SDS011;10514;49.468;11.044;2023-06-01T07:10:59;9.00;;;2.65;;
20705;SDS011;10514;49.468;11.044;2023-06-01T07:13:25;7.32;;;2.67;;
20705;SDS011;10514;49.468;11.044;2023-06-01T07:15:52;9.43;;;2.40;;
20705;SDS011;10514;49.468;11.044;2023-06-01T07:18:18;4.90;;;2.13;;
20705;SDS011;10514;49.468;11.044;2023-06-01T07:20:44;3.67;;;2.50;;
20705;SDS011;10514;49.468;11.044;2023-06-01T07:23:10;7.95;;;2.28;;
20705;SDS011;10514;49.468;11.044;2023-06-01T07:25:37;14.13;;;3.22;;
20705;SDS011;10514;49.468;11.044;2023-06-01T07:28:03;8.20;;;2.30;;
20705;SDS011;10514;49.468;11.044;2023-06-01T07:30:33;5.78;;;2.38;;
20705;SDS011;10514;49.468;11.044;2023-06-01T07:32:59;4.70;;;2.20;;
20705;SDS011;10514;49.468;11.044;2023-06-01T07:35:24;10.00;;;2.20;;
20705;SDS011;10514;49.468;11.044;2023-06-01T07:37:50;4.05;;;2.20;;
20705;SDS011;10514;49.468;11.044;2023-06-01T07:40:16;4.95;;;1.67;;
20705;SDS011;10514;49.468;11.044;2023-06-01T07:42:42;4.07;;;2.03;;
20705;SDS011;10514;49.468;11.044;2023-06-01T07:45:08;8.13;;;2.33;;
20705;SDS011;10514;49.468;11.044;2023-06-01T07:47:34;7.50;;;2.72;;
20705;SDS011;10514;49.468;11.044;2023-06-01T07:50:00;4.03;;;1.80;;
20705;SDS011;10514;49.468;11.044;2023-06-01T07:52:26;5.47;;;1.95;;
20705;SDS011;10514;49.468;11.044;2023-06-01T07:54:52;486.13;;;179.82;;
20705;SDS011;10514;49.468;11.044;2023-06-01T07:57:18;495.60;;;182.35;;
20705;SDS011;10514;49.468;11.044;2023-06-01T07:59:44;483.40;;;170.57;;
20705;SDS011;10514;49.468;11.044;2023-06-01T08:02:10;485.38;;;170.40;;
20705;SDS011;10514;49.468;11.044;2023-06-01T08:04:36;484.50;;;166.95;;
20705;SDS011;10514;49.468;11.044;2023-06-01T08:07:03;483.08;;;167.75;;
20705;SDS011;10514;49.468;11.044;2023-06-01T08:09:29;478.25;;;164.45;;
20705;SDS011;10514;49.468;11.044;2023-06-01T08:11:55;482.67;;;164.32;;
20705;SDS011;10514;49.468;11.044;2023-06-01T08:14:21;485.75;;;164.32;;
20705;SDS011;10514;49.468;11.044;2023-06-01T08:16:47;484.85;;;167.60;;
20705;SDS011;10514;49.468;11.044;2023-06-01T08:19:13;473.40;;;158.07;;
20705;SDS011;10514;49.468;11.044;2023-06-01T08:21:39;475.02;;;166.25;;
20705;SDS011;10514;49.468;11.044;2023-06-01T08:24:06;482.75;;;177.45;;
20705;SDS011;10514;49.468;11.044;2023-06-01T08:26:33;495.48;;;192.30;;
20705;SDS011;10514;49.468;11.044;2023-06-01T08:29:02;488.30;;;180.45;;
20705;SDS011;10514;49.468;11.044;2023-06-01T08:31:28;492.42;;;190.50;;
20705;SDS011;10514;49.468;11.044;2023-06-01T08:33:54;498.70;;;195.13;;
20705;SDS011;10514;49.468;11.044;2023-06-01T08:36:21;491.55;;;192.38;;
20705;SDS011;10514;49.468;11.044;2023-06-01T08:38:48;505.40;;;202.27;;
20705;SDS011;10514;49.468;11.044;2023-06-01T08:43:42;495.25;;;185.55;;
20705;SDS011;10514;49.468;11.044;2023-06-01T08:46:12;502.70;;;194.30;;
20705;SDS011;10514;49.468;11.044;2023-06-01T08:48:40;505.58;;;200.38;;
20705;SDS011;10514;49.468;11.044;2023-06-01T08:51:08;522.17;;;220.48;;
20705;SDS011;10514;49.468;11.044;2023-06-01T08:53:34;503.35;;;200.30;;
20705;SDS011;10514;49.468;11.044;2023-06-01T08:56:00;513.47;;;211.07;;
20705;SDS011;10514;49.468;11.044;2023-06-01T08:58:28;509.45;;;197.95;;
20705;SDS011;10514;49.468;11.044;2023-06-01T09:00:55;508.58;;;207.27;;
20705;SDS011;10514;49.468;11.044;2023-06-01T09:03:23;503.25;;;206.77;;
20705;SDS011;10514;49.468;11.044;2023-06-01T09:05:49;507.02;;;212.88;;
20705;SDS011;10514;49.468;11.044;2023-06-01T09:08:15;504.85;;;199.40;;
20705;SDS011;10514;49.468;11.044;2023-06-01T09:10:41;506.23;;;205.90;;
20705;SDS011;10514;49.468;11.044;2023-06-01T09:13:07;516.25;;;222.07;;
20705;SDS011;10514;49.468;11.044;2023-06-01T09:15:33;511.60;;;216.80;;
20705;SDS011;10514;49.468;11.044;2023-06-01T09:18:09;501.55;;;207.02;;
20705;SDS011;10514;49.468;11.044;2023-06-01T09:20:35;503.08;;;205.00;;
20705;SDS011;10514;49.468;11.044;2023-06-01T09:23:04;497.23;;;190.27;;
20705;SDS011;10514;49.468;11.044;2023-06-01T09:25:31;510.98;;;213.52;;
20705;SDS011;10514;49.468;11.044;2023-06-01T09:27:58;505.80;;;209.48;;
20705;SDS011;10514;49.468;11.044;2023-06-01T09:30:26;509.25;;;211.20;;
20705;SDS011;10514;49.468;11.044;2023-06-01T09:33:12;520.88;;;222.30;;
20705;SDS011;10514;49.468;11.044;2023-06-01T09:35:43;519.25;;;219.25;;
20705;SDS011;10514;49.468;11.044;2023-06-01T09:38:10;506.63;;;209.68;;
20705;SDS011;10514;49.468;11.044;2023-06-01T09:40:37;505.27;;;197.65;;
20705;SDS011;10514;49.468;11.044;2023-06-01T09:43:18;514.92;;;214.90;;
20705;SDS011;10514;49.468;11.044;2023-06-01T09:45:45;502.73;;;206.15;;
20705;SDS011;10514;49.468;11.044;2023-06-01T09:48:17;503.98;;;204.77;;
20705;SDS011;10514;49.468;11.044;2023-06-01T09:50:43;507.17;;;206.68;;
20705;SDS011;10514;49.468;11.044;2023-06-01T09:53:09;512.30;;;216.80;;
20705;SDS011;10514;49.468;11.044;2023-06-01T09:55:35;512.08;;;216.90;;
20705;SDS011;10514;49.468;11.044;2023-06-01T09:58:19;507.63;;;211.18;;
20705;SDS011;10514;49.468;11.044;2023-06-01T10:00:46;529.70;;;233.00;;
20705;SDS011;10514;49.468;11.044;2023-06-01T10:03:14;511.20;;;215.35;;
20705;SDS011;10514;49.468;11.044;2023-06-01T10:05:41;502.60;;;203.63;;
20705;SDS011;10514;49.468;11.044;2023-06-01T10:08:14;514.38;;;217.25;;
20705;SDS011;10514;49.468;11.044;2023-06-01T10:10:41;505.70;;;198.18;;
20705;SDS011;10514;49.468;11.044;2023-06-01T10:13:08;509.88;;;202.45;;
20705;SDS011;10514;49.468;11.044;2023-06-01T10:15:34;513.45;;;218.23;;
20705;SDS011;10514;49.468;11.044;2023-06-01T10:18:01;512.92;;;223.65;;
20705;SDS011;10514;49.468;11.044;2023-06-01T10:20:29;513.88;;;223.10;;
20705;SDS011;10514;49.468;11.044;2023-06-01T10:22:59;513.65;;;224.48;;
20705;SDS011;10514;49.468;11.044;2023-06-01T10:25:25;265.70;;;108.38;;
20705;SDS011;10514;49.468;11.044;2023-06-01T10:28:05;2.33;;;1.65;;
20705;SDS011;10514;49.468;11.044;2023-06-01T10:30:33;5.45;;;2.10;;
20705;SDS011;10514;49.468;11.044;2023-06-01T10:32:59;4.35;;;1.83;;
20705;SDS011;10514;49.468;11.044;2023-06-01T10:40:35;2.45;;;1.42;;
20705;SDS011;10514;49.468;11.044;2023-06-01T10:43:02;3.65;;;1.85;;
20705;SDS011;10514;49.468;11.044;2023-06-01T10:48:04;3.10;;;1.83;;
20705;SDS011;10514;49.468;11.044;2023-06-01T10:50:35;3.67;;;1.63;;
20705;SDS011;10514;49.468;11.044;2023-06-01T11:01:43;4.15;;;1.73;;
20705;SDS011;10514;49.468;11.044;2023-06-01T11:04:10;5.82;;;1.48;;
20705;SDS011;10514;49.468;11.044;2023-06-01T11:06:40;5.00;;;1.90;;
20705;SDS011;10514;49.468;11.044;2023-06-01T11:09:08;4.38;;;2.15;;
20705;SDS011;10514;49.468;11.044;2023-06-01T11:14:13;4.25;;;1.70;;
20705;SDS011;10514;49.468;11.044;2023-06-01T11:16:40;3.42;;;1.40;;
20705;SDS011;10514;49.468;11.044;2023-06-01T11:19:06;4.20;;;1.90;;
20705;SDS011;10514;49.468;11.044;2023-06-01T11:21:35;8.32;;;1.92;;
20705;SDS011;10514;49.468;11.044;2023-06-01T11:24:12;4.32;;;1.88;;
20705;SDS011;10514;49.468;11.044;2023-06-01T11:26:42;5.40;;;2.10;;
20705;SDS011;10514;49.468;11.044;2023-06-01T11:29:14;6.25;;;2.10;;
20705;SDS011;10514;49.468;11.044;2023-06-01T11:31:49;5.30;;;1.65;;
20705;SDS011;10514;49.468;11.044;2023-06-01T11:34:24;2.10;;;1.40;;
20705;SDS011;10514;49.468;11.044;2023-06-01T11:39:39;53.80;;;7.15;;
20705;SDS011;10514;49.468;11.044;2023-06-01T11:44:36;3.88;;;2.05;;
20705;SDS011;10514;49.468;11.044;2023-06-01T11:47:03;3.50;;;2.08;;
20705;SDS011;10514;49.468;11.044;2023-06-01T11:49:30;11.55;;;2.85;;
20705;SDS011;10514;49.468;11.044;2023-06-01T11:51:56;5.53;;;1.95;;
20705;SDS011;10514;49.468;11.044;2023-06-01T11:54:23;3.05;;;2.28;;
20705;SDS011;10514;49.468;11.044;2023-06-01T11:56:51;3.45;;;2.30;;
20705;SDS011;10514;49.468;11.044;2023-06-01T11:59:17;4.95;;;1.88;;
20705;SDS011;10514;49.468;11.044;2023-06-01T12:01:44;15.43;;;2.47;;
20705;SDS011;10514;49.468;11.044;2023-06-01T12:04:14;5.43;;;1.88;;
20705;SDS011;10514;49.468;11.044;2023-06-01T12:06:40;9.20;;;2.33;;
20705;SDS011;10514;49.468;11.044;2023-06-01T12:09:06;9.35;;;3.88;;
20705;SDS011;10514;49.468;11.044;2023-06-01T12:11:33;6.75;;;2.47;;
20705;SDS011;10514;49.468;11.044;2023-06-01T12:13:59;5.70;;;1.95;;
20705;SDS011;10514;49.468;11.044;2023-06-01T12:16:51;5.50;;;2.40;;
20705;SDS011;10514;49.468;11.044;2023-06-01T12:19:19;6.72;;;2.70;;
20705;SDS011;10514;49.468;11.044;2023-06-01T12:21:46;6.38;;;1.83;;
20705;SDS011;10514;49.468;11.044;2023-06-01T12:24:14;3.55;;;1.70;;
20705;SDS011;10514;49.468;11.044;2023-06-01T12:26:40;7.13;;;2.30;;
20705;SDS011;10514;49.468;11.044;2023-06-01T12:29:06;11.25;;;2.20;;
20705;SDS011;10514;49.468;11.044;2023-06-01T12:31:33;4.20;;;2.30;;
20705;SDS011;10514;49.468;11.044;2023-06-01T12:33:59;6.65;;;2.15;;
20705;SDS011;10514;49.468;11.044;2023-06-01T12:36:29;4.47;;;2.20;;
20705;SDS011;10514;49.468;11.044;2023-06-01T12:38:56;6.97;;;1.88;;
20705;SDS011;10514;49.468;11.044;2023-06-01T12:41:24;6.60;;;1.92;;
20705;SDS011;10514;49.468;11.044;2023-06-01T12:43:50;2.90;;;1.73;;
20705;SDS011;10514;49.468;11.044;2023-06-01T12:48:45;3.08;;;1.85;;
20705;SDS011;10514;49.468;11.044;2023-06-01T12:51:14;3.08;;;1.70;;
20705;SDS011;10514;49.468;11.044;2023-06-01T12:53:40;3.95;;;1.60;;
20705;SDS011;10514;49.468;11.044;2023-06-01T12:56:10;4.38;;;1.77;;
20705;SDS011;10514;49.468;11.044;2023-06-01T12:58:36;4.45;;;1.85;;
20705;SDS011;10514;49.468;11.044;2023-06-01T13:01:02;3.95;;;1.67;;
20705;SDS011;10514;49.468;11.044;2023-06-01T13:03:28;2.78;;;1.60;;
20705;SDS011;10514;49.468;11.044;2023-06-01T13:05:54;5.53;;;1.70;;
20705;SDS011;10514;49.468;11.044;2023-06-01T13:08:20;6.97;;;2.10;;
20705;SDS011;10514;49.468;11.044;2023-06-01T13:10:47;2.50;;;1.80;;
20705;SDS011;10514;49.468;11.044;2023-06-01T13:13:14;5.90;;;1.70;;
20705;SDS011;10514;49.468;11.044;2023-06-01T13:15:41;6.75;;;2.00;;
20705;SDS011;10514;49.468;11.044;2023-06-01T13:18:07;3.83;;;1.80;;
20705;SDS011;10514;49.468;11.044;2023-06-01T13:20:33;2.58;;;1.45;;
20705;SDS011;10514;49.468;11.044;2023-06-01T13:22:59;7.10;;;1.67;;
20705;SDS011;10514;49.468;11.044;2023-06-01T13:25:25;3.38;;;1.88;;
20705;SDS011;10514;49.468;11.044;2023-06-01T13:27:51;3.17;;;1.85;;
20705;SDS011;10514;49.468;11.044;2023-06-01T13:30:18;4.55;;;1.73;;
20705;SDS011;10514;49.468;11.044;2023-06-01T13:32:44;2.17;;;1.45;;
20705;SDS011;10514;49.468;11.044;2023-06-01T13:35:10;3.97;;;1.92;;
20705;SDS011;10514;49.468;11.044;2023-06-01T13:37:36;4.38;;;1.73;;
20705;SDS011;10514;49.468;11.044;2023-06-01T13:40:02;4.38;;;1.77;;
20705;SDS011;10514;49.468;11.044;2023-06-01T13:42:30;4.00;;;1.65;;
20705;SDS011;10514;49.468;11.044;2023-06-01T13:44:56;17.85;;;7.43;;
20705;SDS011;10514;49.468;11.044;2023-06-01T13:47:22;4.80;;;2.95;;
20705;SDS011;10514;49.468;11.044;2023-06-01T13:49:48;4.13;;;2.08;;
20705;SDS011;10514;49.468;11.044;2023-06-01T13:52:13;5.10;;;2.30;;
20705;SDS011;10514;49.468;11.044;2023-06-01T13:54:39;16.40;;;3.08;;
20705;SDS011;10514;49.468;11.044;2023-06-01T13:57:05;8.80;;;2.60;;
20705;SDS011;10514;49.468;11.044;2023-06-01T13:59:32;2.97;;;2.00;;
20705;SDS011;10514;49.468;11.044;2023-06-01T14:02:01;4.88;;;1.88;;
20705;SDS011;10514;49.468;11.044;2023-06-01T14:04:28;5.13;;;2.45;;
20705;SDS011;10514;49.468;11.044;2023-06-01T14:06:54;3.10;;;1.58;;
20705;SDS011;10514;49.468;11.044;2023-06-01T14:09:21;2.55;;;1.55;;
20705;SDS011;10514;49.468;11.044;2023-06-01T14:11:47;4.25;;;2.03;;
20705;SDS011;10514;49.468;11.044;2023-06-01T14:14:12;3.50;;;2.00;;
20705;SDS011;10514;49.468;11.044;2023-06-01T14:16:39;3.80;;;1.63;;
20705;SDS011;10514;49.468;11.044;2023-06-01T14:19:04;3.75;;;2.00;;
20705;SDS011;10514;49.468;11.044;2023-06-01T14:21:30;9.57;;;2.20;;
20705;SDS011;10514;49.468;11.044;2023-06-01T14:23:57;18.75;;;2.13;;
20705;SDS011;10514;49.468;11.044;2023-06-01T14:26:23;6.32;;;1.80;;
20705;SDS011;10514;49.468;11.044;2023-06-01T14:28:49;4.45;;;1.73;;
20705;SDS011;10514;49.468;11.044;2023-06-01T14:31:15;2.15;;;1.60;;
20705;SDS011;10514;49.468;11.044;2023-06-01T14:33:42;2.08;;;1.50;;
20705;SDS011;10514;49.468;11.044;2023-06-01T14:36:08;5.15;;;1.60;;
20705;SDS011;10514;49.468;11.044;2023-06-01T14:38:33;4.78;;;1.80;;
20705;SDS011;10514;49.468;11.044;2023-06-01T14:40:59;5.78;;;1.55;;
20705;SDS011;10514;49.468;11.044;2023-06-01T14:43:25;7.05;;;1.80;;
20705;SDS011;10514;49.468;11.044;2023-06-01T14:45:51;9.07;;;1.65;;
20705;SDS011;10514;49.468;11.044;2023-06-01T14:48:17;2.63;;;1.40;;
20705;SDS011;10514;49.468;11.044;2023-06-01T14:50:43;3.35;;;1.60;;
20705;SDS011;10514;49.468;11.044;2023-06-01T14:53:09;2.75;;;1.73;;
20705;SDS011;10514;49.468;11.044;2023-06-01T14:55:35;5.63;;;1.58;;
20705;SDS011;10514;49.468;11.044;2023-06-01T14:58:01;3.78;;;1.80;;
20705;SDS011;10514;49.468;11.044;2023-06-01T15:00:27;4.40;;;1.98;;